sensor_id;sensor_type;location;lat;lon;timestamp;P1;durP1;ratioP1;P2;durP2;ratioP2
545;SDS011;259;53.304;9.816;2023-07-31T00:02:06;1.20;;;0.70;;
545;SDS011;259;53.304;9.816;2023-07-31T00:04:32;1.13;;;0.70;;
545;SDS011;259;53.304;9.816;2023-07-31T00:06:58;0.80;;;0.50;;
545;SDS011;259;53.304;9.816;2023-07-31T00:09:23;0.70;;;0.63;;
545;SDS011;259;53.304;9.816;2023-07-31T00:11:49;0.80;;;0.60;;
545;SDS011;259;53.304;9.816;2023-07-31T00:14:15;0.80;;;0.70;;
545;SDS011;259;53.304;9.816;2023-07-31T00:16:40;0.70;;;0.67;;
545;SDS011;259;53.304;9.816;2023-07-31T00:19:06;1.00;;;0.80;;
545;SDS011;259;53.304;9.816;2023-07-31T00:21:32;0.90;;;0.70;;
545;SDS011;259;53.304;9.816;2023-07-31T00:23:57;0.80;;;0.80;;
545;SDS011;259;53.304;9.816;2023-07-31T00:26:23;0.93;;;0.70;;
545;SDS011;259;53.304;9.816;2023-07-31T00:28:49;2.60;;;0.73;;
545;SDS011;259;53.304;9.816;2023-07-31T00:31:14;0.90;;;0.70;;
545;SDS011;259;53.304;9.816;2023-07-31T00:33:40;1.40;;;0.80;;
545;SDS011;259;53.304;9.816;2023-07-31T00:36:06;0.90;;;0.80;;
545;SDS011;259;53.304;9.816;2023-07-31T00:38:31;0.63;;;0.57;;
545;SDS011;259;53.304;9.816;2023-07-31T00:40:57;1.10;;;0.80;;
545;SDS011;259;53.304;9.816;2023-07-31T00:43:23;0.90;;;0.80;;
545;SDS011;259;53.304;9.816;2023-07-31T00:45:49;2.00;;;1.07;;
545;SDS011;259;53.304;9.816;2023-07-31T00:48:15;2.03;;;1.00;;
545;SDS011;259;53.304;9.816;2023-07-31T00:50:41;0.80;;;0.80;;
545;SDS011;259;53.304;9.816;2023-07-31T00:53:06;1.10;;;0.80;;
545;SDS011;259;53.304;9.816;2023-07-31T00:55:32;1.33;;;0.63;;
545;SDS011;259;53.304;9.816;2023-07-31T00:57:58;1.20;;;0.83;;
545;SDS011;259;53.304;9.816;2023-07-31T01:00:24;0.60;;;0.60;;
545;SDS011;259;53.304;9.816;2023-07-31T01:02:50;1.57;;;0.80;;
545;SDS011;259;53.304;9.816;2023-07-31T01:05:17;0.90;;;0.90;;
545;SDS011;259;53.304;9.816;2023-07-31T01:08:04;1.13;;;0.77;;
545;SDS011;259;53.304;9.816;2023-07-31T01:10:46;0.70;;;0.70;;
545;SDS011;259;53.304;9.816;2023-07-31T01:13:20;1.10;;;1.00;;
545;SDS011;259;53.304;9.816;2023-07-31T01:15:46;1.13;;;0.70;;
545;SDS011;259;53.304;9.816;2023-07-31T01:18:12;0.63;;;0.63;;
545;SDS011;259;53.304;9.816;2023-07-31T01:20:38;1.43;;;0.80;;
545;SDS011;259;53.304;9.816;2023-07-31T01:31:37;0.80;;;0.43;;
545;SDS011;259;53.304;9.816;2023-07-31T01:34:06;0.70;;;0.70;;
545;SDS011;259;53.304;9.816;2023-07-31T01:36:35;0.70;;;0.70;;
545;SDS011;259;53.304;9.816;2023-07-31T01:39:01;1.13;;;0.77;;
545;SDS011;259;53.304;9.816;2023-07-31T01:41:28;1.00;;;1.00;;
545;SDS011;259;53.304;9.816;2023-07-31T01:43:54;1.03;;;0.90;;
545;SDS011;259;53.304;9.816;2023-07-31T01:46:20;0.90;;;0.73;;
545;SDS011;259;53.304;9.816;2023-07-31T01:48:46;1.37;;;0.70;;
545;SDS011;259;53.304;9.816;2023-07-31T01:51:11;0.80;;;0.80;;
545;SDS011;259;53.304;9.816;2023-07-31T01:53:37;1.03;;;0.90;;
545;SDS011;259;53.304;9.816;2023-07-31T01:56:03;0.80;;;0.70;;
545;SDS011;259;53.304;9.816;2023-07-31T01:58:28;1.47;;;0.70;;
545;SDS011;259;53.304;9.816;2023-07-31T02:00:54;0.70;;;0.60;;
545;SDS011;259;53.304;9.816;2023-07-31T02:03:20;1.37;;;0.90;;
545;SDS011;259;53.304;9.816;2023-07-31T02:05:46;0.90;;;0.90;;
545;SDS011;259;53.304;9.816;2023-07-31T02:08:13;1.00;;;0.80;;
545;SDS011;259;53.304;9.816;2023-07-31T02:10:39;0.90;;;0.80;;
545;SDS011;259;53.304;9.816;2023-07-31T02:13:05;1.00;;;0.77;;
545;SDS011;259;53.304;9.816;2023-07-31T02:15:31;0.80;;;0.70;;
545;SDS011;259;53.304;9.816;2023-07-31T02:17:57;0.90;;;0.67;;
545;SDS011;259;53.304;9.816;2023-07-31T02:20:22;1.73;;;1.17;;
545;SDS011;259;53.304;9.816;2023-07-31T02:22:48;1.07;;;0.90;;
545;SDS011;259;53.304;9.816;2023-07-31T02:25:14;2.20;;;1.03;;
545;SDS011;259;53.304;9.816;2023-07-31T02:27:40;0.83;;;0.83;;
545;SDS011;259;53.304;9.816;2023-07-31T02:30:06;0.80;;;0.80;;
545;SDS011;259;53.304;9.816;2023-07-31T02:32:32;1.00;;;0.70;;
545;SDS011;259;53.304;9.816;2023-07-31T02:34:58;0.80;;;0.73;;
545;SDS011;259;53.304;9.816;2023-07-31T02:37:25;0.70;;;0.60;;
545;SDS011;259;53.304;9.816;2023-07-31T02:39:51;0.90;;;0.90;;
545;SDS011;259;53.304;9.816;2023-07-31T02:42:17;1.20;;;0.80;;
545;SDS011;259;53.304;9.816;2023-07-31T02:44:42;1.23;;;0.90;;
545;SDS011;259;53.304;9.816;2023-07-31T02:47:08;1.10;;;1.00;;
545;SDS011;259;53.304;9.816;2023-07-31T02:49:34;0.90;;;0.90;;
545;SDS011;259;53.304;9.816;2023-07-31T02:51:59;0.73;;;0.70;;
545;SDS011;259;53.304;9.816;2023-07-31T02:54:25;1.23;;;1.10;;
545;SDS011;259;53.304;9.816;2023-07-31T02:56:51;0.97;;;0.97;;
545;SDS011;259;53.304;9.816;2023-07-31T02:59:17;1.20;;;0.80;;
545;SDS011;259;53.304;9.816;2023-07-31T03:01:43;0.77;;;0.70;;
545;SDS011;259;53.304;9.816;2023-07-31T03:04:09;0.80;;;0.67;;
545;SDS011;259;53.304;9.816;2023-07-31T03:06:35;0.87;;;0.80;;
545;SDS011;259;53.304;9.816;2023-07-31T03:09:00;1.20;;;1.10;;
545;SDS011;259;53.304;9.816;2023-07-31T03:11:26;1.00;;;0.67;;
545;SDS011;259;53.304;9.816;2023-07-31T03:13:52;0.80;;;0.80;;
545;SDS011;259;53.304;9.816;2023-07-31T03:16:17;0.80;;;0.70;;
545;SDS011;259;53.304;9.816;2023-07-31T03:18:43;0.80;;;0.80;;
545;SDS011;259;53.304;9.816;2023-07-31T03:21:09;1.40;;;0.93;;
545;SDS011;259;53.304;9.816;2023-07-31T03:23:34;0.70;;;0.70;;
545;SDS011;259;53.304;9.816;2023-07-31T03:26:03;0.90;;;0.70;;
545;SDS011;259;53.304;9.816;2023-07-31T03:28:32;1.07;;;0.97;;
545;SDS011;259;53.304;9.816;2023-07-31T03:30:58;0.93;;;0.80;;
545;SDS011;259;53.304;9.816;2023-07-31T03:33:24;0.97;;;0.77;;
545;SDS011;259;53.304;9.816;2023-07-31T03:35:51;0.80;;;0.80;;
545;SDS011;259;53.304;9.816;2023-07-31T03:38:17;0.80;;;0.80;;
545;SDS011;259;53.304;9.816;2023-07-31T03:40:43;1.00;;;0.90;;
545;SDS011;259;53.304;9.816;2023-07-31T03:43:09;1.67;;;1.10;;
545;SDS011;259;53.304;9.816;2023-07-31T03:45:36;1.97;;;1.13;;
545;SDS011;259;53.304;9.816;2023-07-31T03:48:01;1.03;;;0.93;;
545;SDS011;259;53.304;9.816;2023-07-31T03:50:28;1.10;;;0.93;;
545;SDS011;259;53.304;9.816;2023-07-31T03:52:54;1.33;;;1.13;;
545;SDS011;259;53.304;9.816;2023-07-31T03:55:20;1.00;;;0.90;;
545;SDS011;259;53.304;9.816;2023-07-31T03:57:46;0.70;;;0.70;;
545;SDS011;259;53.304;9.816;2023-07-31T04:00:12;0.77;;;0.70;;
545;SDS011;259;53.304;9.816;2023-07-31T04:02:38;1.27;;;1.17;;
545;SDS011;259;53.304;9.816;2023-07-31T04:05:04;0.90;;;0.90;;
545;SDS011;259;53.304;9.816;2023-07-31T04:07:30;1.23;;;0.90;;
545;SDS011;259;53.304;9.816;2023-07-31T04:09:56;0.87;;;0.87;;
545;SDS011;259;53.304;9.816;2023-07-31T04:12:22;1.30;;;1.10;;
545;SDS011;259;53.304;9.816;2023-07-31T04:14:48;1.03;;;1.00;;
545;SDS011;259;53.304;9.816;2023-07-31T04:17:14;0.80;;;0.80;;
545;SDS011;259;53.304;9.816;2023-07-31T04:19:40;1.23;;;1.13;;
545;SDS011;259;53.304;9.816;2023-07-31T04:22:06;1.27;;;1.17;;
545;SDS011;259;53.304;9.816;2023-07-31T04:24:31;1.20;;;0.90;;
545;SDS011;259;53.304;9.816;2023-07-31T04:26:57;2.97;;;1.03;;
545;SDS011;259;53.304;9.816;2023-07-31T04:29:22;1.23;;;1.00;;
545;SDS011;259;53.304;9.816;2023-07-31T04:31:49;1.13;;;1.03;;
545;SDS011;259;53.304;9.816;2023-07-31T04:34:14;1.13;;;1.03;;
545;SDS011;259;53.304;9.816;2023-07-31T04:36:40;1.00;;;1.00;;
545;SDS011;259;53.304;9.816;2023-07-31T04:39:06;1.40;;;1.10;;
545;SDS011;259;53.304;9.816;2023-07-31T04:41:32;1.03;;;0.93;;
545;SDS011;259;53.304;9.816;2023-07-31T04:43:57;1.30;;;1.20;;
545;SDS011;259;53.304;9.816;2023-07-31T04:46:23;1.13;;;0.80;;
545;SDS011;259;53.304;9.816;2023-07-31T04:48:49;0.90;;;0.90;;
545;SDS011;259;53.304;9.816;2023-07-31T04:51:14;0.87;;;0.87;;
545;SDS011;259;53.304;9.816;2023-07-31T04:53:40;1.30;;;0.90;;
545;SDS011;259;53.304;9.816;2023-07-31T04:56:06;1.03;;;0.97;;
545;SDS011;259;53.304;9.816;2023-07-31T04:58:31;0.90;;;0.90;;
545;SDS011;259;53.304;9.816;2023-07-31T05:00:57;1.27;;;0.97;;
545;SDS011;259;53.304;9.816;2023-07-31T05:03:23;0.80;;;0.80;;
545;SDS011;259;53.304;9.816;2023-07-31T05:05:49;2.27;;;1.50;;
545;SDS011;259;53.304;9.816;2023-07-31T05:08:15;0.90;;;0.90;;
545;SDS011;259;53.304;9.816;2023-07-31T05:10:42;0.90;;;0.90;;
545;SDS011;259;53.304;9.816;2023-07-31T05:13:08;2.03;;;1.20;;
545;SDS011;259;53.304;9.816;2023-07-31T05:15:34;1.23;;;1.13;;
545;SDS011;259;53.304;9.816;2023-07-31T05:18:00;1.07;;;1.00;;
545;SDS011;259;53.304;9.816;2023-07-31T05:20:25;2.80;;;1.20;;
545;SDS011;259;53.304;9.816;2023-07-31T05:22:52;1.00;;;1.00;;
545;SDS011;259;53.304;9.816;2023-07-31T05:25:18;1.20;;;1.10;;
545;SDS011;259;53.304;9.816;2023-07-31T05:27:44;1.10;;;1.03;;
545;SDS011;259;53.304;9.816;2023-07-31T05:30:09;0.93;;;0.93;;
545;SDS011;259;53.304;9.816;2023-07-31T05:32:35;1.00;;;0.90;;
545;SDS011;259;53.304;9.816;2023-07-31T05:35:01;1.83;;;1.50;;
545;SDS011;259;53.304;9.816;2023-07-31T05:37:26;1.33;;;1.30;;
545;SDS011;259;53.304;9.816;2023-07-31T05:39:52;1.23;;;1.13;;
545;SDS011;259;53.304;9.816;2023-07-31T05:42:18;1.10;;;1.00;;
545;SDS011;259;53.304;9.816;2023-07-31T05:44:44;1.20;;;1.20;;
545;SDS011;259;53.304;9.816;2023-07-31T05:47:09;1.10;;;1.00;;
545;SDS011;259;53.304;9.816;2023-07-31T05:49:35;1.07;;;1.07;;
545;SDS011;259;53.304;9.816;2023-07-31T05:52:01;1.10;;;1.00;;
545;SDS011;259;53.304;9.816;2023-07-31T05:54:27;1.00;;;1.00;;
545;SDS011;259;53.304;9.816;2023-07-31T05:56:53;1.13;;;1.07;;
545;SDS011;259;53.304;9.816;2023-07-31T05:59:18;0.90;;;0.90;;
545;SDS011;259;53.304;9.816;2023-07-31T06:01:44;1.27;;;1.17;;
545;SDS011;259;53.304;9.816;2023-07-31T06:04:10;1.30;;;1.20;;
545;SDS011;259;53.304;9.816;2023-07-31T06:06:35;1.10;;;1.07;;
545;SDS011;259;53.304;9.816;2023-07-31T06:09:01;0.80;;;0.80;;
545;SDS011;259;53.304;9.816;2023-07-31T06:11:28;1.20;;;1.10;;
545;SDS011;259;53.304;9.816;2023-07-31T06:13:54;1.33;;;1.23;;
545;SDS011;259;53.304;9.816;2023-07-31T06:16:20;0.90;;;0.90;;
545;SDS011;259;53.304;9.816;2023-07-31T06:18:46;0.90;;;0.90;;
545;SDS011;259;53.304;9.816;2023-07-31T06:21:12;1.13;;;0.90;;
545;SDS011;259;53.304;9.816;2023-07-31T06:23:38;1.13;;;1.03;;
545;SDS011;259;53.304;9.816;2023-07-31T06:26:03;1.20;;;1.10;;
545;SDS011;259;53.304;9.816;2023-07-31T06:28:30;0.80;;;0.80;;
545;SDS011;259;53.304;9.816;2023-07-31T06:30:57;0.80;;;0.80;;
545;SDS011;259;53.304;9.816;2023-07-31T06:33:23;1.00;;;0.97;;
545;SDS011;259;53.304;9.816;2023-07-31T06:35:50;2.97;;;1.27;;
545;SDS011;259;53.304;9.816;2023-07-31T06:38:18;0.90;;;0.90;;
545;SDS011;259;53.304;9.816;2023-07-31T06:40:47;1.10;;;1.00;;
545;SDS011;259;53.304;9.816;2023-07-31T06:43:14;1.03;;;1.03;;
545;SDS011;259;53.304;9.816;2023-07-31T06:45:39;0.80;;;0.80;;
545;SDS011;259;53.304;9.816;2023-07-31T06:48:05;1.23;;;1.10;;
545;SDS011;259;53.304;9.816;2023-07-31T06:50:31;1.03;;;1.03;;
545;SDS011;259;53.304;9.816;2023-07-31T06:52:57;1.10;;;1.10;;
545;SDS011;259;53.304;9.816;2023-07-31T06:55:23;1.10;;;1.10;;
545;SDS011;259;53.304;9.816;2023-07-31T06:57:50;1.20;;;1.20;;
545;SDS011;259;53.304;9.816;2023-07-31T07:00:18;0.80;;;0.80;;
545;SDS011;259;53.304;9.816;2023-07-31T07:02:45;1.00;;;1.00;;
545;SDS011;259;53.304;9.816;2023-07-31T07:05:12;0.97;;;0.90;;
545;SDS011;259;53.304;9.816;2023-07-31T07:07:39;1.30;;;1.20;;
545;SDS011;259;53.304;9.816;2023-07-31T07:10:05;1.20;;;1.20;;
545;SDS011;259;53.304;9.816;2023-07-31T07:12:32;0.90;;;0.90;;
545;SDS011;259;53.304;9.816;2023-07-31T07:14:59;0.90;;;0.90;;
545;SDS011;259;53.304;9.816;2023-07-31T07:17:29;1.13;;;1.10;;
545;SDS011;259;53.304;9.816;2023-07-31T07:19:58;0.87;;;0.87;;
545;SDS011;259;53.304;9.816;2023-07-31T07:22:25;1.00;;;1.00;;
545;SDS011;259;53.304;9.816;2023-07-31T07:24:52;0.83;;;0.83;;
545;SDS011;259;53.304;9.816;2023-07-31T07:27:18;0.60;;;0.60;;
545;SDS011;259;53.304;9.816;2023-07-31T07:29:44;0.90;;;0.90;;
545;SDS011;259;53.304;9.816;2023-07-31T07:32:11;0.97;;;0.97;;
545;SDS011;259;53.304;9.816;2023-07-31T07:34:37;1.30;;;1.20;;
545;SDS011;259;53.304;9.816;2023-07-31T07:37:03;0.90;;;0.90;;
545;SDS011;259;53.304;9.816;2023-07-31T07:39:29;1.10;;;1.00;;
545;SDS011;259;53.304;9.816;2023-07-31T07:41:55;0.90;;;0.90;;
545;SDS011;259;53.304;9.816;2023-07-31T07:44:20;0.90;;;0.90;;
545;SDS011;259;53.304;9.816;2023-07-31T07:46:46;0.80;;;0.70;;
545;SDS011;259;53.304;9.816;2023-07-31T07:49:12;0.80;;;0.80;;
545;SDS011;259;53.304;9.816;2023-07-31T07:51:37;0.90;;;0.90;;
545;SDS011;259;53.304;9.816;2023-07-31T07:54:03;1.17;;;1.10;;
545;SDS011;259;53.304;9.816;2023-07-31T07:56:29;0.70;;;0.70;;
545;SDS011;259;53.304;9.816;2023-07-31T07:58:54;1.10;;;1.00;;
545;SDS011;259;53.304;9.816;2023-07-31T08:01:20;0.70;;;0.70;;
545;SDS011;259;53.304;9.816;2023-07-31T08:03:46;0.70;;;0.70;;
545;SDS011;259;53.304;9.816;2023-07-31T08:06:13;1.10;;;1.10;;
545;SDS011;259;53.304;9.816;2023-07-31T08:08:39;0.90;;;0.90;;
545;SDS011;259;53.304;9.816;2023-07-31T08:11:05;1.27;;;1.17;;
545;SDS011;259;53.304;9.816;2023-07-31T08:13:31;1.00;;;0.90;;
545;SDS011;259;53.304;9.816;2023-07-31T08:15:57;0.83;;;0.83;;
545;SDS011;259;53.304;9.816;2023-07-31T08:18:22;0.87;;;0.87;;
545;SDS011;259;53.304;9.816;2023-07-31T08:20:48;1.27;;;1.17;;
545;SDS011;259;53.304;9.816;2023-07-31T08:23:14;1.10;;;0.70;;
545;SDS011;259;53.304;9.816;2023-07-31T08:25:40;0.80;;;0.80;;
545;SDS011;259;53.304;9.816;2023-07-31T08:28:05;0.80;;;0.80;;
545;SDS011;259;53.304;9.816;2023-07-31T08:30:32;1.00;;;1.00;;
545;SDS011;259;53.304;9.816;2023-07-31T08:33:01;0.73;;;0.73;;
545;SDS011;259;53.304;9.816;2023-07-31T08:35:27;0.70;;;0.70;;
545;SDS011;259;53.304;9.816;2023-07-31T08:37:53;0.73;;;0.73;;
545;SDS011;259;53.304;9.816;2023-07-31T08:40:19;1.13;;;0.87;;
545;SDS011;259;53.304;9.816;2023-07-31T08:42:47;0.80;;;0.80;;
545;SDS011;259;53.304;9.816;2023-07-31T08:45:14;0.87;;;0.87;;
545;SDS011;259;53.304;9.816;2023-07-31T08:47:46;0.67;;;0.67;;
545;SDS011;259;53.304;9.816;2023-07-31T08:50:14;0.70;;;0.67;;
545;SDS011;259;53.304;9.816;2023-07-31T08:52:43;0.80;;;0.70;;
545;SDS011;259;53.304;9.816;2023-07-31T08:55:09;0.70;;;0.70;;
545;SDS011;259;53.304;9.816;2023-07-31T08:57:38;1.20;;;1.03;;
545;SDS011;259;53.304;9.816;2023-07-31T09:00:04;0.60;;;0.60;;
545;SDS011;259;53.304;9.816;2023-07-31T09:02:44;1.07;;;0.90;;
545;SDS011;259;53.304;9.816;2023-07-31T09:05:13;0.87;;;0.60;;
545;SDS011;259;53.304;9.816;2023-07-31T09:07:40;0.80;;;0.80;;
545;SDS011;259;53.304;9.816;2023-07-31T09:10:11;0.80;;;0.80;;
545;SDS011;259;53.304;9.816;2023-07-31T09:12:37;0.80;;;0.80;;
545;SDS011;259;53.304;9.816;2023-07-31T09:15:04;0.70;;;0.70;;
545;SDS011;259;53.304;9.816;2023-07-31T09:17:31;0.70;;;0.70;;
545;SDS011;259;53.304;9.816;2023-07-31T09:22:41;0.70;;;0.70;;
545;SDS011;259;53.304;9.816;2023-07-31T09:25:24;0.60;;;0.60;;
545;SDS011;259;53.304;9.816;2023-07-31T09:30:20;1.17;;;0.90;;
545;SDS011;259;53.304;9.816;2023-07-31T09:32:47;0.77;;;0.77;;
545;SDS011;259;53.304;9.816;2023-07-31T09:35:20;0.70;;;0.70;;
545;SDS011;259;53.304;9.816;2023-07-31T09:37:57;0.83;;;0.80;;
545;SDS011;259;53.304;9.816;2023-07-31T09:40:47;0.67;;;0.67;;
545;SDS011;259;53.304;9.816;2023-07-31T09:43:17;0.80;;;0.77;;
545;SDS011;259;53.304;9.816;2023-07-31T09:45:46;1.10;;;0.90;;
545;SDS011;259;53.304;9.816;2023-07-31T09:48:13;0.83;;;0.80;;
545;SDS011;259;53.304;9.816;2023-07-31T09:50:44;1.07;;;0.90;;
545;SDS011;259;53.304;9.816;2023-07-31T09:53:12;0.87;;;0.87;;
545;SDS011;259;53.304;9.816;2023-07-31T09:55:39;1.20;;;1.10;;
545;SDS011;259;53.304;9.816;2023-07-31T09:58:07;1.00;;;1.00;;
545;SDS011;259;53.304;9.816;2023-07-31T10:00:36;1.20;;;1.20;;
545;SDS011;259;53.304;9.816;2023-07-31T10:03:09;1.20;;;1.10;;
545;SDS011;259;53.304;9.816;2023-07-31T10:05:42;1.13;;;1.13;;
545;SDS011;259;53.304;9.816;2023-07-31T10:08:15;1.30;;;1.20;;
545;SDS011;259;53.304;9.816;2023-07-31T10:10:45;1.10;;;1.00;;
545;SDS011;259;53.304;9.816;2023-07-31T10:13:12;1.33;;;1.17;;
545;SDS011;259;53.304;9.816;2023-07-31T10:15:38;1.73;;;1.63;;
545;SDS011;259;53.304;9.816;2023-07-31T10:18:06;1.20;;;0.90;;
545;SDS011;259;53.304;9.816;2023-07-31T10:20:32;1.20;;;1.10;;
545;SDS011;259;53.304;9.816;2023-07-31T10:22:58;1.33;;;1.23;;
545;SDS011;259;53.304;9.816;2023-07-31T10:25:25;1.30;;;1.20;;
545;SDS011;259;53.304;9.816;2023-07-31T10:27:52;1.43;;;1.33;;
545;SDS011;259;53.304;9.816;2023-07-31T10:30:21;1.20;;;1.10;;
545;SDS011;259;53.304;9.816;2023-07-31T10:32:54;1.80;;;1.20;;
545;SDS011;259;53.304;9.816;2023-07-31T10:35:21;1.23;;;1.13;;
545;SDS011;259;53.304;9.816;2023-07-31T10:37:49;1.60;;;1.50;;
545;SDS011;259;53.304;9.816;2023-07-31T10:40:23;1.30;;;1.20;;
545;SDS011;259;53.304;9.816;2023-07-31T10:42:54;1.80;;;1.33;;
545;SDS011;259;53.304;9.816;2023-07-31T10:45:35;1.33;;;1.30;;
545;SDS011;259;53.304;9.816;2023-07-31T10:48:13;1.60;;;1.50;;
545;SDS011;259;53.304;9.816;2023-07-31T10:50:51;1.57;;;1.40;;
545;SDS011;259;53.304;9.816;2023-07-31T10:55:50;1.47;;;1.37;;
545;SDS011;259;53.304;9.816;2023-07-31T10:58:18;1.73;;;1.63;;
545;SDS011;259;53.304;9.816;2023-07-31T11:00:46;1.80;;;1.70;;
545;SDS011;259;53.304;9.816;2023-07-31T11:03:18;1.70;;;1.60;;
545;SDS011;259;53.304;9.816;2023-07-31T11:08:35;2.30;;;2.00;;
545;SDS011;259;53.304;9.816;2023-07-31T11:11:07;1.80;;;1.70;;
545;SDS011;259;53.304;9.816;2023-07-31T11:13:41;1.30;;;1.20;;
545;SDS011;259;53.304;9.816;2023-07-31T11:16:11;1.50;;;1.40;;
545;SDS011;259;53.304;9.816;2023-07-31T11:18:39;1.70;;;1.60;;
545;SDS011;259;53.304;9.816;2023-07-31T11:21:12;1.80;;;1.47;;
545;SDS011;259;53.304;9.816;2023-07-31T11:23:46;1.90;;;1.80;;
545;SDS011;259;53.304;9.816;2023-07-31T11:26:21;1.83;;;1.73;;
545;SDS011;259;53.304;9.816;2023-07-31T11:28:49;1.40;;;1.30;;
545;SDS011;259;53.304;9.816;2023-07-31T11:31:16;1.83;;;1.73;;
545;SDS011;259;53.304;9.816;2023-07-31T11:33:43;1.60;;;1.50;;
545;SDS011;259;53.304;9.816;2023-07-31T11:36:19;1.73;;;1.10;;
545;SDS011;259;53.304;9.816;2023-07-31T11:38:45;1.70;;;1.60;;
545;SDS011;259;53.304;9.816;2023-07-31T11:41:13;1.77;;;1.67;;
545;SDS011;259;53.304;9.816;2023-07-31T11:43:41;2.50;;;1.97;;
545;SDS011;259;53.304;9.816;2023-07-31T11:46:07;1.60;;;1.50;;
545;SDS011;259;53.304;9.816;2023-07-31T11:48:34;1.50;;;1.40;;
545;SDS011;259;53.304;9.816;2023-07-31T11:51:02;2.00;;;1.70;;
545;SDS011;259;53.304;9.816;2023-07-31T11:53:31;1.93;;;1.83;;
545;SDS011;259;53.304;9.816;2023-07-31T11:56:02;1.63;;;1.53;;
545;SDS011;259;53.304;9.816;2023-07-31T11:58:32;1.60;;;1.50;;
545;SDS011;259;53.304;9.816;2023-07-31T12:00:59;1.63;;;1.53;;
545;SDS011;259;53.304;9.816;2023-07-31T12:03:26;1.80;;;1.70;;
545;SDS011;259;53.304;9.816;2023-07-31T12:05:52;1.63;;;1.53;;
545;SDS011;259;53.304;9.816;2023-07-31T12:08:20;1.23;;;1.13;;
545;SDS011;259;53.304;9.816;2023-07-31T12:10:49;1.83;;;1.73;;
545;SDS011;259;53.304;9.816;2023-07-31T12:13:23;1.50;;;1.40;;
545;SDS011;259;53.304;9.816;2023-07-31T12:15:54;1.60;;;1.50;;
545;SDS011;259;53.304;9.816;2023-07-31T12:18:22;1.67;;;1.57;;
545;SDS011;259;53.304;9.816;2023-07-31T12:20:54;1.60;;;1.50;;
545;SDS011;259;53.304;9.816;2023-07-31T12:23:22;1.47;;;1.30;;
545;SDS011;259;53.304;9.816;2023-07-31T12:26:10;1.67;;;1.43;;
545;SDS011;259;53.304;9.816;2023-07-31T12:31:11;1.63;;;1.53;;
545;SDS011;259;53.304;9.816;2023-07-31T12:33:39;1.87;;;1.20;;
545;SDS011;259;53.304;9.816;2023-07-31T12:36:09;1.77;;;1.67;;
545;SDS011;259;53.304;9.816;2023-07-31T12:38:40;1.33;;;1.23;;
545;SDS011;259;53.304;9.816;2023-07-31T12:41:07;1.60;;;1.50;;
545;SDS011;259;53.304;9.816;2023-07-31T12:43:33;1.40;;;1.30;;
545;SDS011;259;53.304;9.816;2023-07-31T12:46:00;1.70;;;1.60;;
545;SDS011;259;53.304;9.816;2023-07-31T12:48:26;1.50;;;1.40;;
545;SDS011;259;53.304;9.816;2023-07-31T12:50:51;1.50;;;1.37;;
545;SDS011;259;53.304;9.816;2023-07-31T12:53:17;1.40;;;1.30;;
545;SDS011;259;53.304;9.816;2023-07-31T12:55:43;1.20;;;1.17;;
545;SDS011;259;53.304;9.816;2023-07-31T12:58:08;1.33;;;1.23;;
545;SDS011;259;53.304;9.816;2023-07-31T13:00:34;1.17;;;1.07;;
545;SDS011;259;53.304;9.816;2023-07-31T13:03:00;1.60;;;1.50;;
545;SDS011;259;53.304;9.816;2023-07-31T13:05:26;1.50;;;1.40;;
545;SDS011;259;53.304;9.816;2023-07-31T13:07:53;1.17;;;1.07;;
545;SDS011;259;53.304;9.816;2023-07-31T13:10:19;1.07;;;1.07;;
545;SDS011;259;53.304;9.816;2023-07-31T13:12:45;1.30;;;1.20;;
545;SDS011;259;53.304;9.816;2023-07-31T13:15:11;0.90;;;0.90;;
545;SDS011;259;53.304;9.816;2023-07-31T13:17:37;1.30;;;1.20;;
545;SDS011;259;53.304;9.816;2023-07-31T13:20:03;1.40;;;1.30;;
545;SDS011;259;53.304;9.816;2023-07-31T13:22:30;1.40;;;1.30;;
545;SDS011;259;53.304;9.816;2023-07-31T13:24:55;1.07;;;1.07;;
545;SDS011;259;53.304;9.816;2023-07-31T13:27:21;1.50;;;1.30;;
545;SDS011;259;53.304;9.816;2023-07-31T13:29:48;1.80;;;1.30;;
545;SDS011;259;53.304;9.816;2023-07-31T13:32:15;1.20;;;1.10;;
545;SDS011;259;53.304;9.816;2023-07-31T13:34:41;1.93;;;1.17;;
545;SDS011;259;53.304;9.816;2023-07-31T13:37:07;1.40;;;1.30;;
545;SDS011;259;53.304;9.816;2023-07-31T13:39:33;1.47;;;1.37;;
545;SDS011;259;53.304;9.816;2023-07-31T13:41:59;1.07;;;1.07;;
545;SDS011;259;53.304;9.816;2023-07-31T13:44:26;1.23;;;1.13;;
545;SDS011;259;53.304;9.816;2023-07-31T13:46:51;1.00;;;1.00;;
545;SDS011;259;53.304;9.816;2023-07-31T13:49:17;1.13;;;1.13;;
545;SDS011;259;53.304;9.816;2023-07-31T13:51:43;1.07;;;1.07;;
545;SDS011;259;53.304;9.816;2023-07-31T13:54:08;0.80;;;0.80;;
545;SDS011;259;53.304;9.816;2023-07-31T13:56:36;1.43;;;1.33;;
545;SDS011;259;53.304;9.816;2023-07-31T13:59:02;0.80;;;0.80;;
545;SDS011;259;53.304;9.816;2023-07-31T14:01:29;1.20;;;1.10;;
545;SDS011;259;53.304;9.816;2023-07-31T14:03:55;1.13;;;1.03;;
545;SDS011;259;53.304;9.816;2023-07-31T14:06:21;1.00;;;1.00;;
545;SDS011;259;53.304;9.816;2023-07-31T14:08:47;0.80;;;0.80;;
545;SDS011;259;53.304;9.816;2023-07-31T14:11:12;0.90;;;0.90;;
545;SDS011;259;53.304;9.816;2023-07-31T14:13:38;0.77;;;0.77;;
545;SDS011;259;53.304;9.816;2023-07-31T14:16:04;1.30;;;1.20;;
545;SDS011;259;53.304;9.816;2023-07-31T14:18:29;0.87;;;0.87;;
545;SDS011;259;53.304;9.816;2023-07-31T14:20:55;0.70;;;0.70;;
545;SDS011;259;53.304;9.816;2023-07-31T14:23:21;0.80;;;0.80;;
545;SDS011;259;53.304;9.816;2023-07-31T14:25:47;0.80;;;0.80;;
545;SDS011;259;53.304;9.816;2023-07-31T14:28:12;0.80;;;0.80;;
545;SDS011;259;53.304;9.816;2023-07-31T14:30:38;1.63;;;0.90;;
545;SDS011;259;53.304;9.816;2023-07-31T14:33:04;0.80;;;0.80;;
545;SDS011;259;53.304;9.816;2023-07-31T14:35:30;1.10;;;0.60;;
545;SDS011;259;53.304;9.816;2023-07-31T14:37:55;0.90;;;0.90;;
545;SDS011;259;53.304;9.816;2023-07-31T14:40:21;1.20;;;1.10;;
545;SDS011;259;53.304;9.816;2023-07-31T14:42:47;0.80;;;0.80;;
545;SDS011;259;53.304;9.816;2023-07-31T14:45:12;1.00;;;0.93;;
545;SDS011;259;53.304;9.816;2023-07-31T14:47:38;1.30;;;1.17;;
545;SDS011;259;53.304;9.816;2023-07-31T14:50:04;0.70;;;0.70;;
545;SDS011;259;53.304;9.816;2023-07-31T14:52:30;0.90;;;0.90;;
545;SDS011;259;53.304;9.816;2023-07-31T14:54:56;0.70;;;0.70;;
545;SDS011;259;53.304;9.816;2023-07-31T14:57:22;1.00;;;0.90;;
545;SDS011;259;53.304;9.816;2023-07-31T14:59:48;0.93;;;0.93;;
545;SDS011;259;53.304;9.816;2023-07-31T15:02:14;1.27;;;0.87;;
545;SDS011;259;53.304;9.816;2023-07-31T15:04:40;0.70;;;0.60;;
545;SDS011;259;53.304;9.816;2023-07-31T15:07:06;1.20;;;0.80;;
545;SDS011;259;53.304;9.816;2023-07-31T15:09:32;0.83;;;0.83;;
545;SDS011;259;53.304;9.816;2023-07-31T15:11:58;0.70;;;0.70;;
545;SDS011;259;53.304;9.816;2023-07-31T15:14:24;1.37;;;1.27;;
545;SDS011;259;53.304;9.816;2023-07-31T15:16:50;0.80;;;0.73;;
545;SDS011;259;53.304;9.816;2023-07-31T15:19:16;0.80;;;0.80;;
545;SDS011;259;53.304;9.816;2023-07-31T15:21:42;0.93;;;0.83;;
545;SDS011;259;53.304;9.816;2023-07-31T15:24:07;0.90;;;0.90;;
545;SDS011;259;53.304;9.816;2023-07-31T15:26:33;0.70;;;0.70;;
545;SDS011;259;53.304;9.816;2023-07-31T15:29:03;0.70;;;0.70;;
545;SDS011;259;53.304;9.816;2023-07-31T15:31:34;0.80;;;0.80;;
545;SDS011;259;53.304;9.816;2023-07-31T15:34:00;0.90;;;0.90;;
545;SDS011;259;53.304;9.816;2023-07-31T15:36:26;0.80;;;0.70;;
545;SDS011;259;53.304;9.816;2023-07-31T15:38:52;0.77;;;0.77;;
545;SDS011;259;53.304;9.816;2023-07-31T15:41:18;0.80;;;0.80;;
545;SDS011;259;53.304;9.816;2023-07-31T15:43:44;1.13;;;1.03;;
545;SDS011;259;53.304;9.816;2023-07-31T15:46:10;0.90;;;0.90;;
545;SDS011;259;53.304;9.816;2023-07-31T15:48:37;1.00;;;0.90;;
545;SDS011;259;53.304;9.816;2023-07-31T15:51:02;1.00;;;1.00;;
545;SDS011;259;53.304;9.816;2023-07-31T15:53:29;0.73;;;0.73;;
545;SDS011;259;53.304;9.816;2023-07-31T15:55:55;1.07;;;1.07;;
545;SDS011;259;53.304;9.816;2023-07-31T15:58:21;1.10;;;1.00;;
545;SDS011;259;53.304;9.816;2023-07-31T16:00:48;0.90;;;0.90;;
545;SDS011;259;53.304;9.816;2023-07-31T16:03:14;0.80;;;0.70;;
545;SDS011;259;53.304;9.816;2023-07-31T16:05:39;1.40;;;1.00;;